createdAt,value
2023-01-11T00:00:18.917Z,101324.84
2023-01-11T00:03:23.208Z,101323.06
2023-01-11T00:06:27.552Z,101285.66
2023-01-11T00:09:32.022Z,101295.84
2023-01-11T00:12:36.482Z,101341.59
2023-01-11T00:15:41.308Z,101318.56
2023-01-11T00:18:45.652Z,101350.22
2023-01-11T00:21:50.931Z,101344.06
2023-01-11T00:24:55.441Z,101324.66
2023-01-11T00:28:00.269Z,101302.31
2023-01-11T00:31:04.686Z,101342.38
2023-01-11T00:34:08.988Z,101356.47
2023-01-11T00:37:13.657Z,101325.06
2023-01-11T00:40:18.452Z,101337.66
2023-01-11T00:43:41.462Z,101337.31
2023-01-11T00:47:04.591Z,101332.81
2023-01-11T00:50:09.160Z,101347.03
2023-01-11T00:53:15.238Z,101348.03
2023-01-11T00:56:19.796Z,101333.03
2023-01-11T00:59:24.160Z,101333.34
2023-01-11T01:02:28.013Z,101275.34
2023-01-11T01:05:32.975Z,101332.09
2023-01-11T01:08:45.375Z,101337.50
2023-01-11T01:11:50.639Z,101279.97
2023-01-11T01:15:00.582Z,101333.00
2023-01-11T01:18:06.973Z,101322.88
2023-01-11T01:21:11.413Z,101319.53
2023-01-11T01:24:16.094Z,101307.84
2023-01-11T01:27:20.877Z,101287.03
2023-01-11T01:30:25.113Z,101318.44
2023-01-11T01:33:29.449Z,101310.22
2023-01-11T01:36:34.485Z,101307.56
2023-01-11T01:39:39.344Z,101291.88
2023-01-11T01:42:43.544Z,101278.81
2023-01-11T01:45:53.634Z,101274.81
2023-01-11T01:49:19.490Z,101271.06
2023-01-11T01:52:29.870Z,101263.94
2023-01-11T01:55:39.505Z,101213.25
2023-01-11T01:58:55.983Z,101253.09
2023-01-11T02:02:01.453Z,101261.19
2023-01-11T02:05:07.188Z,101232.63
2023-01-11T02:08:20.961Z,101241.38
2023-01-11T02:11:35.875Z,101238.88
2023-01-11T02:14:42.867Z,101224.28
2023-01-11T02:18:11.531Z,101227.47
2023-01-11T02:21:49.886Z,101205.25
2023-01-11T02:25:22.417Z,101190.63
2023-01-11T02:28:39.672Z,101172.69
2023-01-11T02:32:12.555Z,101180.00
2023-01-11T02:35:29.037Z,101169.44
2023-01-11T02:38:59.305Z,101188.34
2023-01-11T02:42:33.454Z,101186.22
2023-01-11T02:46:01.588Z,101172.81
2023-01-11T02:49:11.400Z,101170.81
2023-01-11T02:52:21.460Z,101159.72
2023-01-11T02:55:30.206Z,101148.53
2023-01-11T02:58:39.177Z,101150.81
2023-01-11T03:01:56.268Z,101143.72
2023-01-11T03:05:00.660Z,101138.72
2023-01-11T03:08:35.225Z,101136.47
2023-01-11T03:11:58.021Z,101139.97
2023-01-11T03:15:23.527Z,101137.44
2023-01-11T03:18:48.772Z,101149.88
2023-01-11T03:22:13.868Z,101040.50
2023-01-11T03:25:32.235Z,101013.00
2023-01-11T03:28:57.654Z,101138.38
2023-01-11T03:32:35.620Z,101152.06
2023-01-11T03:35:58.285Z,101146.63
2023-01-11T03:39:15.474Z,101143.72
2023-01-11T03:42:24.955Z,101129.22
2023-01-11T03:45:32.307Z,101104.94
2023-01-11T03:48:49.043Z,101122.53
2023-01-11T03:51:55.974Z,101122.91
2023-01-11T03:55:03.845Z,101110.66
2023-01-11T03:58:09.770Z,101110.19
2023-01-11T04:01:15.096Z,101120.47
2023-01-11T04:04:19.680Z,101121.25
2023-01-11T04:07:23.893Z,101097.34
2023-01-11T04:10:28.445Z,101112.03
2023-01-11T04:13:34.872Z,101092.69
2023-01-11T04:16:39.481Z,101090.34
2023-01-11T04:19:43.912Z,101112.50
2023-01-11T04:22:48.455Z,101097.38
2023-01-11T04:25:54.195Z,101120.09
2023-01-11T04:28:58.851Z,101113.34
2023-01-11T04:32:04.703Z,101111.03
2023-01-11T04:35:09.462Z,101098.25
2023-01-11T04:38:13.834Z,101075.81
2023-01-11T04:41:36.303Z,101075.31
2023-01-11T04:44:40.375Z,101080.25
2023-01-11T04:47:44.821Z,101044.81
2023-01-11T04:50:50.189Z,101056.47
2023-01-11T04:53:54.764Z,101067.56
2023-01-11T04:56:59.638Z,101054.00
2023-01-11T05:00:14.184Z,101066.88
2023-01-11T05:03:18.590Z,101047.56
2023-01-11T05:06:26.645Z,101057.88
2023-01-11T05:09:30.877Z,101059.91
2023-01-11T05:12:35.772Z,101072.78
2023-01-11T05:15:39.717Z,101073.81
2023-01-11T05:18:49.114Z,101035.22
2023-01-11T05:21:53.612Z,101071.28
2023-01-11T05:24:57.693Z,101060.63
2023-01-11T05:28:01.755Z,101041.31
2023-01-11T05:31:06.825Z,101065.25
2023-01-11T05:34:13.891Z,101038.78
2023-01-11T05:37:17.874Z,101028.25
2023-01-11T05:40:22.535Z,101038.09
2023-01-11T05:43:28.003Z,101035.50
2023-01-11T05:46:33.433Z,101044.16
2023-01-11T05:49:37.606Z,101050.84
2023-01-11T05:52:42.117Z,101044.97
2023-01-11T05:55:54.583Z,101062.00
2023-01-11T05:58:59.369Z,101056.88
2023-01-11T06:02:03.277Z,101069.38
2023-01-11T06:05:08.531Z,101056.75
2023-01-11T06:08:13.850Z,101054.16
2023-01-11T06:11:18.557Z,101028.72
2023-01-11T06:14:22.592Z,101072.50
2023-01-11T06:17:26.833Z,101045.34
2023-01-11T06:20:31.220Z,101060.09
2023-01-11T06:23:38.307Z,101051.63
2023-01-11T06:26:42.355Z,101033.25
2023-01-11T06:29:46.626Z,101001.16
2023-01-11T06:32:52.275Z,101028.56
2023-01-11T06:35:57.244Z,101026.88
2023-01-11T06:39:01.652Z,101029.38
2023-01-11T06:42:06.137Z,101033.94
2023-01-11T06:45:10.777Z,101003.47
2023-01-11T06:48:15.535Z,100985.63
2023-01-11T06:51:19.905Z,101001.00
2023-01-11T06:54:26.371Z,101011.00
2023-01-11T06:57:30.945Z,100992.28
2023-01-11T07:00:35.533Z,100976.22
2023-01-11T07:03:41.003Z,101015.38
2023-01-11T07:06:45.707Z,101020.75
2023-01-11T07:09:50.060Z,101021.56
2023-01-11T07:12:54.565Z,100996.00
2023-01-11T07:15:59.240Z,101008.16
2023-01-11T07:19:03.964Z,101004.19
2023-01-11T07:22:08.548Z,100998.09
2023-01-11T07:25:13.000Z,100998.25
2023-01-11T07:28:17.285Z,101004.69
2023-01-11T07:31:22.036Z,101001.59
2023-01-11T07:34:26.956Z,100996.34
2023-01-11T07:37:33.403Z,101011.19
2023-01-11T07:40:38.373Z,101024.72
2023-01-11T07:43:43.360Z,100990.81
2023-01-11T07:46:47.688Z,101010.91
2023-01-11T07:49:52.118Z,101027.63
2023-01-11T07:52:56.200Z,101016.97
2023-01-11T07:56:00.359Z,101028.44
2023-01-11T07:59:04.686Z,101028.53
2023-01-11T08:02:11.628Z,101013.41
2023-01-11T08:05:15.892Z,101007.47
2023-01-11T08:08:20.413Z,101018.19
2023-01-11T08:11:42.967Z,100996.00
2023-01-11T08:14:47.426Z,101001.00
2023-01-11T08:17:52.079Z,100985.19
2023-01-11T08:20:56.479Z,100972.66
2023-01-11T08:24:01.369Z,100986.47
2023-01-11T08:27:07.099Z,100994.56
2023-01-11T08:30:14.741Z,100988.53
2023-01-11T08:33:19.781Z,100983.63
2023-01-11T08:36:25.328Z,100963.94
2023-01-11T08:39:32.990Z,100965.81
2023-01-11T08:42:37.519Z,100962.19
2023-01-11T08:45:41.598Z,100928.59
2023-01-11T08:48:49.711Z,100961.00
2023-01-11T08:51:54.445Z,100960.84
2023-01-11T08:54:59.244Z,100964.53
2023-01-11T08:58:03.583Z,100932.19
2023-01-11T09:01:10.504Z,100954.97
2023-01-11T09:04:24.319Z,100942.78
2023-01-11T09:07:30.274Z,100940.69
2023-01-11T09:10:34.995Z,100947.72
2023-01-11T09:13:39.477Z,100948.31
2023-01-11T09:16:43.572Z,100952.09
2023-01-11T09:19:47.621Z,100963.38
2023-01-11T09:22:54.271Z,100942.44
2023-01-11T09:25:58.645Z,100928.66
2023-01-11T09:29:04.539Z,100930.34
2023-01-11T09:32:08.409Z,100935.72
2023-01-11T09:35:13.046Z,100923.06
2023-01-11T09:38:17.223Z,100934.75
2023-01-11T09:42:01.093Z,100943.25
2023-01-11T09:45:21.395Z,100959.03
2023-01-11T09:48:45.970Z,100961.28
2023-01-11T09:51:53.594Z,100954.91
2023-01-11T09:55:00.076Z,100952.94
2023-01-11T09:58:13.515Z,100962.22
2023-01-11T10:01:35.884Z,100969.97
2023-01-11T10:05:10.375Z,100942.16
2023-01-11T10:18:43.473Z,100946.41
2023-01-11T10:20:04.212Z,100943.84
2023-01-11T10:23:33.015Z,100900.13
2023-01-11T10:26:43.246Z,100932.91
2023-01-11T10:29:54.145Z,100946.66
2023-01-11T10:33:41.063Z,100964.97
2023-01-11T10:37:19.747Z,100945.81
2023-01-11T10:40:31.931Z,100938.31
2023-01-11T10:43:45.309Z,100950.91
2023-01-11T10:46:55.290Z,100945.59
2023-01-11T10:50:16.491Z,100932.38
2023-01-11T10:53:30.826Z,100941.00
2023-01-11T10:57:03.278Z,100913.75
2023-01-11T11:00:19.121Z,100893.34
2023-01-11T11:03:49.731Z,100917.63
2023-01-11T11:07:08.611Z,100923.91
2023-01-11T11:10:20.099Z,100928.06
2023-01-11T11:13:36.452Z,100933.34
2023-01-11T11:16:46.793Z,100942.19
2023-01-11T11:19:51.395Z,100942.50
2023-01-11T11:22:59.577Z,100941.09
2023-01-11T11:26:08.038Z,100931.56
2023-01-11T11:29:20.546Z,100929.19
2023-01-11T11:32:31.157Z,100933.16
2023-01-11T11:35:35.917Z,100932.22
2023-01-11T11:38:43.372Z,100921.56
2023-01-11T11:41:54.135Z,100912.38
2023-01-11T11:45:12.124Z,100926.78
2023-01-11T11:48:21.101Z,100932.38
2023-01-11T11:51:27.701Z,100915.06
2023-01-11T11:54:36.884Z,100943.44
2023-01-11T11:57:43.434Z,100935.88
2023-01-11T12:00:56.728Z,100955.09
2023-01-11T12:04:26.895Z,100951.28
2023-01-11T12:11:47.819Z,100889.03
2023-01-11T12:15:19.428Z,100855.53
2023-01-11T12:18:27.182Z,100814.78
2023-01-11T12:25:44.171Z,100934.94
2023-01-11T12:29:52.087Z,100949.94
2023-01-11T12:33:03.057Z,100953.06
2023-01-11T12:36:13.900Z,100952.63
2023-01-11T12:39:46.970Z,100973.47
2023-01-11T12:43:26.737Z,100928.00
2023-01-11T12:47:09.261Z,100954.56
2023-01-11T12:50:55.614Z,100974.31
2023-01-11T12:54:29.087Z,100986.00
2023-01-11T12:58:01.513Z,100928.00
2023-01-11T13:01:39.896Z,100986.16
2023-01-11T13:05:20.213Z,101007.44
2023-01-11T13:08:27.215Z,101015.63
2023-01-11T13:11:54.714Z,101017.03
2023-01-11T13:15:17.632Z,101019.38
2023-01-11T13:18:31.204Z,101030.09
2023-01-11T13:21:45.131Z,101018.56
2023-01-11T13:24:51.930Z,101037.94
2023-01-11T13:27:59.524Z,101027.56
2023-01-11T13:31:06.614Z,101048.31
2023-01-11T13:34:21.608Z,101059.91
2023-01-11T13:37:33.714Z,101052.00
2023-01-11T13:40:43.676Z,101055.97
2023-01-11T13:44:06.138Z,101058.72
2023-01-11T13:47:36.325Z,101063.47
2023-01-11T13:51:05.332Z,101052.38
2023-01-11T13:54:26.680Z,101052.88
2023-01-11T13:58:08.621Z,101061.44
2023-01-11T14:01:17.408Z,101060.69
2023-01-11T14:04:34.367Z,101044.56
2023-01-11T14:07:52.567Z,101046.31
2023-01-11T14:11:06.539Z,101041.16
2023-01-11T14:14:27.528Z,101042.44
2023-01-11T14:18:10.286Z,101045.94
2023-01-11T14:21:34.063Z,100858.59
2023-01-11T14:24:43.100Z,101011.97
2023-01-11T14:28:07.103Z,100992.97
2023-01-11T14:31:53.010Z,101018.88
2023-01-11T14:35:35.379Z,101012.09
2023-01-11T14:39:06.933Z,100933.19
2023-01-11T14:42:35.339Z,100968.09
2023-01-11T14:45:54.636Z,100992.50
2023-01-11T14:49:10.755Z,100991.38
2023-01-11T14:52:38.259Z,100987.03
2023-01-11T14:55:49.921Z,100972.34
2023-01-11T14:59:23.391Z,100977.91
2023-01-11T15:02:30.537Z,100902.25
2023-01-11T15:05:40.259Z,100977.47
2023-01-11T15:08:47.173Z,100890.41
2023-01-11T15:11:58.252Z,100946.50
2023-01-11T15:15:22.711Z,100973.44
2023-01-11T15:18:28.414Z,100959.91
2023-01-11T15:21:38.903Z,100966.78
2023-01-11T15:24:58.525Z,100997.72
2023-01-11T15:28:25.911Z,100971.50
2023-01-11T15:31:49.080Z,100848.47
2023-01-11T15:34:54.093Z,101004.44
2023-01-11T15:38:25.055Z,101016.91
2023-01-11T15:42:07.742Z,101045.16
2023-01-11T15:45:29.697Z,101038.72
2023-01-11T15:48:54.343Z,101092.72
2023-01-11T15:52:14.682Z,101061.22
2023-01-11T15:55:49.619Z,101095.56
2023-01-11T15:59:28.952Z,101133.19
2023-01-11T16:03:03.289Z,101123.31
2023-01-11T16:06:37.396Z,101164.91
2023-01-11T16:09:51.337Z,101038.78
2023-01-11T16:13:10.328Z,101129.97
2023-01-11T16:16:20.077Z,101129.13
2023-01-11T16:19:29.932Z,101121.97
2023-01-11T16:22:35.948Z,101047.53
2023-01-11T16:25:44.125Z,101054.94
2023-01-11T16:28:53.707Z,101145.78
2023-01-11T16:31:59.893Z,101084.69
2023-01-11T16:35:17.771Z,101142.63
2023-01-11T16:38:23.684Z,101020.88
2023-01-11T16:41:34.181Z,101146.59
2023-01-11T16:44:42.505Z,101144.75
2023-01-11T16:48:03.782Z,101144.81
2023-01-11T16:51:20.295Z,101155.81
2023-01-11T16:54:29.058Z,101124.25
2023-01-11T16:57:40.292Z,101113.09
2023-01-11T17:00:53.058Z,101128.03
2023-01-11T17:03:57.506Z,101136.25
2023-01-11T17:07:15.608Z,101137.53
2023-01-11T17:10:24.776Z,101153.34
2023-01-11T17:13:53.866Z,101169.75
2023-01-11T17:17:14.681Z,101177.19
2023-01-11T17:20:30.776Z,101163.16
2023-01-11T17:23:35.044Z,101186.66
2023-01-11T17:26:46.725Z,101176.47
2023-01-11T17:29:55.397Z,101168.69
2023-01-11T17:33:00.636Z,101158.56
2023-01-11T17:36:05.539Z,101157.28
2023-01-11T17:39:17.541Z,101173.56
2023-01-11T17:42:40.671Z,101200.72
2023-01-11T17:45:52.598Z,101171.28
2023-01-11T17:48:59.443Z,101215.84
2023-01-11T17:52:22.259Z,101208.72
2023-01-11T17:55:28.194Z,101225.19
2023-01-11T17:58:34.634Z,101228.91
2023-01-11T18:01:39.710Z,101232.88
2023-01-11T18:04:44.367Z,101219.19
2023-01-11T18:07:56.360Z,101244.31
2023-01-11T18:11:01.044Z,101248.81
2023-01-11T18:14:08.534Z,101250.84
2023-01-11T18:17:34.093Z,101241.31
2023-01-11T18:20:41.034Z,101216.16
2023-01-11T18:23:45.640Z,101198.69
2023-01-11T18:26:51.032Z,101233.06
2023-01-11T18:29:58.788Z,101222.56
2023-01-11T18:33:05.336Z,101212.94
2023-01-11T18:36:24.507Z,101176.25
2023-01-11T18:39:28.906Z,101202.84
2023-01-11T18:42:33.355Z,101221.66
2023-01-11T18:45:38.696Z,101219.91
2023-01-11T18:48:46.979Z,101230.72
2023-01-11T18:51:51.283Z,101233.69
2023-01-11T18:54:57.543Z,101243.56
2023-01-11T18:58:02.103Z,101247.09
2023-01-11T19:01:09.345Z,101255.53
2023-01-11T19:04:13.864Z,101262.50
2023-01-11T19:07:19.031Z,101254.44
2023-01-11T19:10:25.313Z,101259.81
2023-01-11T19:13:29.783Z,101223.91
2023-01-11T19:16:33.991Z,101248.97
2023-01-11T19:19:38.648Z,101241.72
2023-01-11T19:22:45.341Z,101213.09
2023-01-11T19:25:58.923Z,101241.50
2023-01-11T19:29:03.283Z,101167.06
2023-01-11T19:32:12.122Z,101267.97
2023-01-11T19:35:16.388Z,101216.41
2023-01-11T19:38:21.456Z,101198.34
2023-01-11T19:41:25.989Z,101276.38
2023-01-11T19:44:35.953Z,101270.16
2023-01-11T19:47:40.894Z,101254.06
2023-01-11T19:50:45.154Z,101249.41
2023-01-11T19:53:49.878Z,101267.50
2023-01-11T19:56:58.998Z,101281.97
2023-01-11T20:00:04.940Z,101304.47
2023-01-11T20:03:15.709Z,101278.94
2023-01-11T20:06:20.272Z,101277.69
2023-01-11T20:09:25.445Z,101301.84
2023-01-11T20:12:29.888Z,101312.03
2023-01-11T20:15:34.291Z,101308.78
2023-01-11T20:18:38.843Z,101347.97
2023-01-11T20:21:43.290Z,101276.53
2023-01-11T20:24:48.473Z,101323.31
2023-01-11T20:27:53.006Z,101353.28
2023-01-11T20:31:02.326Z,101335.50
2023-01-11T20:34:11.730Z,101278.56
2023-01-11T20:37:16.439Z,101255.59
2023-01-11T20:40:21.920Z,101287.44
2023-01-11T20:43:26.006Z,101335.72
2023-01-11T20:46:33.385Z,101297.84
2023-01-11T20:49:37.968Z,101341.38
2023-01-11T20:52:46.428Z,101305.56
2023-01-11T20:55:51.932Z,101328.09
2023-01-11T20:58:55.814Z,101327.63
2023-01-11T21:02:00.384Z,101281.25
2023-01-11T21:05:08.108Z,101328.22
2023-01-11T21:08:12.790Z,101330.66
2023-01-11T21:11:17.477Z,101328.00
2023-01-11T21:14:23.282Z,101323.00
2023-01-11T21:17:28.064Z,101351.75
2023-01-11T21:20:32.601Z,101359.56
2023-01-11T21:23:37.053Z,101375.13
2023-01-11T21:26:43.070Z,101369.41
2023-01-11T21:29:48.379Z,101373.53
2023-01-11T21:32:52.577Z,101354.47
2023-01-11T21:35:58.357Z,101356.47
2023-01-11T21:39:04.173Z,101381.19
2023-01-11T21:42:08.848Z,101372.81
2023-01-11T21:45:13.491Z,101346.66
2023-01-11T21:48:18.239Z,101372.66
2023-01-11T21:51:22.681Z,101396.72
2023-01-11T21:54:27.256Z,101363.38
2023-01-11T21:57:31.810Z,101389.91
2023-01-11T22:00:36.637Z,101389.91
2023-01-11T22:03:44.669Z,101336.59
2023-01-11T22:06:55.267Z,101417.00
2023-01-11T22:10:04.818Z,101419.72
2023-01-11T22:13:13.759Z,101427.63
2023-01-11T22:16:20.165Z,101419.72
2023-01-11T22:19:28.189Z,101332.25
2023-01-11T22:22:32.611Z,101414.22
2023-01-11T22:25:37.441Z,101409.13
2023-01-11T22:29:00.779Z,101433.28
2023-01-11T22:32:05.678Z,101435.56
2023-01-11T22:35:12.594Z,101422.09
2023-01-11T22:38:17.591Z,101428.66
2023-01-11T22:41:24.093Z,101454.84
2023-01-11T22:44:28.535Z,101369.22
2023-01-11T22:47:35.311Z,101386.09
2023-01-11T22:50:41.680Z,101366.97
2023-01-11T22:53:48.797Z,101371.31
2023-01-11T22:56:53.739Z,101469.19
2023-01-11T22:59:59.237Z,101471.28
2023-01-11T23:03:05.080Z,101442.31
2023-01-11T23:06:11.491Z,101478.44
2023-01-11T23:09:17.214Z,101473.53
2023-01-11T23:12:43.505Z,101475.19
2023-01-11T23:15:53.758Z,101343.66
2023-01-11T23:18:58.587Z,101473.66
2023-01-11T23:22:03.635Z,101461.84
2023-01-11T23:25:08.745Z,101462.56
2023-01-11T23:28:13.431Z,101456.66
2023-01-11T23:31:21.066Z,101390.03
2023-01-11T23:34:25.634Z,101425.81
2023-01-11T23:37:30.081Z,101410.31
2023-01-11T23:40:56.969Z,101431.50
2023-01-11T23:44:02.053Z,101457.19
2023-01-11T23:47:22.085Z,101466.06
2023-01-11T23:50:29.869Z,101389.06
2023-01-11T23:53:33.954Z,101452.16
2023-01-11T23:56:38.662Z,101413.75
2023-01-11T23:59:43.840Z,101463.78
